sensor_id;sensor_type;location;lat;lon;timestamp;P1;durP1;ratioP1;P2;durP2;ratioP2
41043;SDS011;51680;49.806;18.774;2022-07-29T00:02:45;8.90;;;3.43;;
41043;SDS011;51680;49.806;18.774;2022-07-29T00:05:47;6.07;;;3.65;;
41043;SDS011;51680;49.806;18.774;2022-07-29T00:08:49;5.05;;;2.88;;
41043;SDS011;51680;49.806;18.774;2022-07-29T00:11:50;9.35;;;3.42;;
41043;SDS011;51680;49.806;18.774;2022-07-29T00:14:54;6.00;;;3.40;;
41043;SDS011;51680;49.806;18.774;2022-07-29T00:17:57;5.78;;;3.10;;
41043;SDS011;51680;49.806;18.774;2022-07-29T00:20:58;9.68;;;3.38;;
41043;SDS011;51680;49.806;18.774;2022-07-29T00:24:00;8.48;;;3.65;;
41043;SDS011;51680;49.806;18.774;2022-07-29T00:27:02;7.97;;;4.07;;
41043;SDS011;51680;49.806;18.774;2022-07-29T00:30:06;7.80;;;3.65;;
41043;SDS011;51680;49.806;18.774;2022-07-29T00:33:09;6.05;;;3.05;;
41043;SDS011;51680;49.806;18.774;2022-07-29T00:36:11;5.63;;;3.47;;
41043;SDS011;51680;49.806;18.774;2022-07-29T00:39:12;6.63;;;3.80;;
41043;SDS011;51680;49.806;18.774;2022-07-29T00:42:13;8.63;;;3.70;;
41043;SDS011;51680;49.806;18.774;2022-07-29T00:45:17;7.97;;;3.80;;
41043;SDS011;51680;49.806;18.774;2022-07-29T00:48:20;7.30;;;3.92;;
41043;SDS011;51680;49.806;18.774;2022-07-29T00:51:21;8.20;;;3.97;;
41043;SDS011;51680;49.806;18.774;2022-07-29T00:54:23;7.38;;;3.83;;
41043;SDS011;51680;49.806;18.774;2022-07-29T00:57:25;7.78;;;3.88;;
41043;SDS011;51680;49.806;18.774;2022-07-29T01:00:28;6.82;;;3.75;;
41043;SDS011;51680;49.806;18.774;2022-07-29T01:03:30;6.30;;;3.80;;
41043;SDS011;51680;49.806;18.774;2022-07-29T01:06:32;6.22;;;3.33;;
41043;SDS011;51680;49.806;18.774;2022-07-29T01:09:34;7.47;;;3.28;;
41043;SDS011;51680;49.806;18.774;2022-07-29T01:12:37;7.47;;;3.97;;
41043;SDS011;51680;49.806;18.774;2022-07-29T01:15:43;8.55;;;3.78;;
41043;SDS011;51680;49.806;18.774;2022-07-29T01:18:47;7.35;;;3.65;;
41043;SDS011;51680;49.806;18.774;2022-07-29T01:21:55;7.97;;;3.83;;
41043;SDS011;51680;49.806;18.774;2022-07-29T01:32:03;5.13;;;3.55;;
41043;SDS011;51680;49.806;18.774;2022-07-29T01:35:10;5.85;;;3.47;;
41043;SDS011;51680;49.806;18.774;2022-07-29T01:38:20;9.18;;;4.05;;
41043;SDS011;51680;49.806;18.774;2022-07-29T01:41:26;7.78;;;3.75;;
41043;SDS011;51680;49.806;18.774;2022-07-29T01:44:37;7.55;;;3.85;;
41043;SDS011;51680;49.806;18.774;2022-07-29T01:47:46;7.82;;;3.72;;
41043;SDS011;51680;49.806;18.774;2022-07-29T01:50:56;6.55;;;4.45;;
41043;SDS011;51680;49.806;18.774;2022-07-29T01:54:04;9.45;;;4.13;;
41043;SDS011;51680;49.806;18.774;2022-07-29T01:57:11;7.07;;;4.57;;
41043;SDS011;51680;49.806;18.774;2022-07-29T02:00:17;7.82;;;4.82;;
41043;SDS011;51680;49.806;18.774;2022-07-29T02:03:19;8.95;;;4.25;;
41043;SDS011;51680;49.806;18.774;2022-07-29T02:06:23;11.50;;;4.60;;
41043;SDS011;51680;49.806;18.774;2022-07-29T02:09:26;9.57;;;4.18;;
41043;SDS011;51680;49.806;18.774;2022-07-29T02:12:30;8.43;;;4.93;;
41043;SDS011;51680;49.806;18.774;2022-07-29T02:15:35;8.30;;;4.37;;
41043;SDS011;51680;49.806;18.774;2022-07-29T02:18:38;6.78;;;4.20;;
41043;SDS011;51680;49.806;18.774;2022-07-29T02:21:42;8.95;;;4.53;;
41043;SDS011;51680;49.806;18.774;2022-07-29T02:24:45;7.18;;;4.45;;
41043;SDS011;51680;49.806;18.774;2022-07-29T02:27:49;8.57;;;4.50;;
41043;SDS011;51680;49.806;18.774;2022-07-29T02:30:54;8.35;;;4.70;;
41043;SDS011;51680;49.806;18.774;2022-07-29T02:33:59;7.25;;;5.03;;
41043;SDS011;51680;49.806;18.774;2022-07-29T02:37:02;11.50;;;4.80;;
41043;SDS011;51680;49.806;18.774;2022-07-29T02:40:06;9.67;;;4.60;;
41043;SDS011;51680;49.806;18.774;2022-07-29T02:43:11;7.88;;;4.50;;
41043;SDS011;51680;49.806;18.774;2022-07-29T02:46:16;8.13;;;4.45;;
41043;SDS011;51680;49.806;18.774;2022-07-29T02:49:27;8.57;;;4.65;;
41043;SDS011;51680;49.806;18.774;2022-07-29T02:52:37;8.80;;;4.55;;
41043;SDS011;51680;49.806;18.774;2022-07-29T02:55:43;10.23;;;5.00;;
41043;SDS011;51680;49.806;18.774;2022-07-29T02:58:49;7.38;;;4.53;;
41043;SDS011;51680;49.806;18.774;2022-07-29T03:01:57;8.55;;;4.72;;
41043;SDS011;51680;49.806;18.774;2022-07-29T03:05:01;11.20;;;4.65;;
41043;SDS011;51680;49.806;18.774;2022-07-29T03:08:05;8.17;;;4.87;;
41043;SDS011;51680;49.806;18.774;2022-07-29T03:11:08;10.13;;;4.60;;
41043;SDS011;51680;49.806;18.774;2022-07-29T03:14:10;8.07;;;4.68;;
41043;SDS011;51680;49.806;18.774;2022-07-29T03:17:15;10.60;;;4.68;;
41043;SDS011;51680;49.806;18.774;2022-07-29T03:20:17;10.00;;;4.95;;
41043;SDS011;51680;49.806;18.774;2022-07-29T03:23:20;8.05;;;4.72;;
41043;SDS011;51680;49.806;18.774;2022-07-29T03:26:24;11.77;;;5.00;;
41043;SDS011;51680;49.806;18.774;2022-07-29T03:29:26;10.98;;;4.93;;
41043;SDS011;51680;49.806;18.774;2022-07-29T03:32:30;8.85;;;4.90;;
41043;SDS011;51680;49.806;18.774;2022-07-29T03:35:32;8.00;;;4.60;;
41043;SDS011;51680;49.806;18.774;2022-07-29T03:38:34;10.75;;;5.18;;
41043;SDS011;51680;49.806;18.774;2022-07-29T03:41:39;10.85;;;5.10;;
41043;SDS011;51680;49.806;18.774;2022-07-29T03:44:44;9.07;;;4.93;;
41043;SDS011;51680;49.806;18.774;2022-07-29T03:47:51;8.20;;;4.50;;
41043;SDS011;51680;49.806;18.774;2022-07-29T03:50:56;10.20;;;4.63;;
41043;SDS011;51680;49.806;18.774;2022-07-29T03:53:58;7.57;;;4.28;;
41043;SDS011;51680;49.806;18.774;2022-07-29T03:57:00;10.43;;;4.70;;
41043;SDS011;51680;49.806;18.774;2022-07-29T04:00:04;9.87;;;4.93;;
41043;SDS011;51680;49.806;18.774;2022-07-29T04:03:08;10.68;;;5.10;;
41043;SDS011;51680;49.806;18.774;2022-07-29T04:06:10;8.55;;;4.60;;
41043;SDS011;51680;49.806;18.774;2022-07-29T04:09:13;7.60;;;4.40;;
41043;SDS011;51680;49.806;18.774;2022-07-29T04:12:15;11.80;;;5.25;;
41043;SDS011;51680;49.806;18.774;2022-07-29T04:15:16;6.70;;;4.60;;
41043;SDS011;51680;49.806;18.774;2022-07-29T04:18:19;9.00;;;4.63;;
41043;SDS011;51680;49.806;18.774;2022-07-29T04:21:21;7.68;;;4.90;;
41043;SDS011;51680;49.806;18.774;2022-07-29T04:24:23;8.18;;;4.47;;
41043;SDS011;51680;49.806;18.774;2022-07-29T04:27:25;8.40;;;4.53;;
41043;SDS011;51680;49.806;18.774;2022-07-29T04:30:27;6.60;;;4.60;;
41043;SDS011;51680;49.806;18.774;2022-07-29T04:33:30;8.75;;;4.45;;
41043;SDS011;51680;49.806;18.774;2022-07-29T04:36:32;13.03;;;4.97;;
41043;SDS011;51680;49.806;18.774;2022-07-29T04:39:34;8.15;;;4.13;;
41043;SDS011;51680;49.806;18.774;2022-07-29T04:42:35;8.30;;;4.20;;
41043;SDS011;51680;49.806;18.774;2022-07-29T04:45:37;6.10;;;4.38;;
41043;SDS011;51680;49.806;18.774;2022-07-29T04:48:40;12.82;;;4.60;;
41043;SDS011;51680;49.806;18.774;2022-07-29T04:51:42;6.57;;;4.13;;
41043;SDS011;51680;49.806;18.774;2022-07-29T04:54:44;8.32;;;4.38;;
41043;SDS011;51680;49.806;18.774;2022-07-29T04:57:46;7.68;;;4.70;;
41043;SDS011;51680;49.806;18.774;2022-07-29T05:00:47;6.07;;;4.22;;
41043;SDS011;51680;49.806;18.774;2022-07-29T05:03:50;5.60;;;4.20;;
41043;SDS011;51680;49.806;18.774;2022-07-29T05:06:52;9.23;;;4.50;;
41043;SDS011;51680;49.806;18.774;2022-07-29T05:09:54;7.18;;;4.40;;
41043;SDS011;51680;49.806;18.774;2022-07-29T05:12:57;10.75;;;4.68;;
41043;SDS011;51680;49.806;18.774;2022-07-29T05:15:58;10.07;;;4.60;;
41043;SDS011;51680;49.806;18.774;2022-07-29T05:19:02;7.53;;;4.95;;
41043;SDS011;51680;49.806;18.774;2022-07-29T05:22:04;11.02;;;4.43;;
41043;SDS011;51680;49.806;18.774;2022-07-29T05:25:06;7.68;;;4.32;;
41043;SDS011;51680;49.806;18.774;2022-07-29T05:28:09;8.02;;;4.30;;
41043;SDS011;51680;49.806;18.774;2022-07-29T05:31:11;8.45;;;4.70;;
41043;SDS011;51680;49.806;18.774;2022-07-29T05:34:16;7.80;;;4.97;;
41043;SDS011;51680;49.806;18.774;2022-07-29T05:37:19;8.60;;;4.70;;
41043;SDS011;51680;49.806;18.774;2022-07-29T05:40:20;11.70;;;4.88;;
41043;SDS011;51680;49.806;18.774;2022-07-29T05:43:22;8.80;;;4.35;;
41043;SDS011;51680;49.806;18.774;2022-07-29T05:46:24;8.23;;;3.95;;
41043;SDS011;51680;49.806;18.774;2022-07-29T05:49:27;9.38;;;4.78;;
41043;SDS011;51680;49.806;18.774;2022-07-29T05:52:29;9.57;;;4.27;;
41043;SDS011;51680;49.806;18.774;2022-07-29T05:55:31;7.63;;;4.20;;
41043;SDS011;51680;49.806;18.774;2022-07-29T05:58:32;9.45;;;4.60;;
41043;SDS011;51680;49.806;18.774;2022-07-29T06:01:34;7.22;;;4.13;;
41043;SDS011;51680;49.806;18.774;2022-07-29T06:04:40;8.10;;;4.65;;
41043;SDS011;51680;49.806;18.774;2022-07-29T06:07:42;8.07;;;4.50;;
41043;SDS011;51680;49.806;18.774;2022-07-29T06:10:44;8.70;;;4.20;;
41043;SDS011;51680;49.806;18.774;2022-07-29T06:13:46;8.13;;;4.35;;
41043;SDS011;51680;49.806;18.774;2022-07-29T06:16:48;13.52;;;4.90;;
41043;SDS011;51680;49.806;18.774;2022-07-29T06:19:51;8.32;;;4.50;;
41043;SDS011;51680;49.806;18.774;2022-07-29T06:22:53;8.25;;;4.43;;
41043;SDS011;51680;49.806;18.774;2022-07-29T06:25:55;9.20;;;4.28;;
41043;SDS011;51680;49.806;18.774;2022-07-29T06:28:56;11.95;;;4.25;;
41043;SDS011;51680;49.806;18.774;2022-07-29T06:31:58;5.93;;;4.10;;
41043;SDS011;51680;49.806;18.774;2022-07-29T06:35:02;9.05;;;4.72;;
41043;SDS011;51680;49.806;18.774;2022-07-29T06:38:04;7.85;;;4.20;;
41043;SDS011;51680;49.806;18.774;2022-07-29T06:41:06;8.65;;;4.20;;
41043;SDS011;51680;49.806;18.774;2022-07-29T06:44:12;7.15;;;4.15;;
41043;SDS011;51680;49.806;18.774;2022-07-29T06:47:14;7.07;;;3.72;;
41043;SDS011;51680;49.806;18.774;2022-07-29T06:50:17;7.00;;;4.45;;
41043;SDS011;51680;49.806;18.774;2022-07-29T06:53:19;9.30;;;4.22;;
41043;SDS011;51680;49.806;18.774;2022-07-29T06:56:21;8.90;;;3.95;;
41043;SDS011;51680;49.806;18.774;2022-07-29T06:59:23;7.38;;;3.97;;
41043;SDS011;51680;49.806;18.774;2022-07-29T07:02:25;6.97;;;4.32;;
41043;SDS011;51680;49.806;18.774;2022-07-29T07:05:28;10.40;;;4.05;;
41043;SDS011;51680;49.806;18.774;2022-07-29T07:08:30;8.47;;;4.10;;
41043;SDS011;51680;49.806;18.774;2022-07-29T07:11:31;9.82;;;3.83;;
41043;SDS011;51680;49.806;18.774;2022-07-29T07:14:34;8.48;;;3.95;;
41043;SDS011;51680;49.806;18.774;2022-07-29T07:17:35;8.70;;;4.22;;
41043;SDS011;51680;49.806;18.774;2022-07-29T07:20:39;9.52;;;3.83;;
41043;SDS011;51680;49.806;18.774;2022-07-29T07:23:40;8.97;;;4.07;;
41043;SDS011;51680;49.806;18.774;2022-07-29T07:26:42;10.48;;;4.32;;
41043;SDS011;51680;49.806;18.774;2022-07-29T07:29:44;6.28;;;3.70;;
41043;SDS011;51680;49.806;18.774;2022-07-29T07:33:04;12.90;;;3.80;;
41043;SDS011;51680;49.806;18.774;2022-07-29T07:36:07;12.18;;;4.35;;
41043;SDS011;51680;49.806;18.774;2022-07-29T07:39:09;8.35;;;4.18;;
41043;SDS011;51680;49.806;18.774;2022-07-29T07:42:11;10.02;;;4.40;;
41043;SDS011;51680;49.806;18.774;2022-07-29T07:45:13;7.15;;;4.47;;
41043;SDS011;51680;49.806;18.774;2022-07-29T07:48:15;10.85;;;4.38;;
41043;SDS011;51680;49.806;18.774;2022-07-29T07:51:18;10.63;;;4.30;;
41043;SDS011;51680;49.806;18.774;2022-07-29T07:54:20;8.13;;;3.88;;
41043;SDS011;51680;49.806;18.774;2022-07-29T07:57:21;10.48;;;4.43;;
41043;SDS011;51680;49.806;18.774;2022-07-29T08:00:23;13.60;;;5.40;;
41043;SDS011;51680;49.806;18.774;2022-07-29T08:03:25;10.07;;;4.78;;
41043;SDS011;51680;49.806;18.774;2022-07-29T08:06:28;10.80;;;4.38;;
41043;SDS011;51680;49.806;18.774;2022-07-29T08:09:30;13.07;;;4.33;;
41043;SDS011;51680;49.806;18.774;2022-07-29T08:12:32;9.00;;;3.90;;
41043;SDS011;51680;49.806;18.774;2022-07-29T08:15:33;11.38;;;4.13;;
41043;SDS011;51680;49.806;18.774;2022-07-29T08:18:36;7.55;;;3.83;;
41043;SDS011;51680;49.806;18.774;2022-07-29T08:21:39;9.38;;;4.25;;
41043;SDS011;51680;49.806;18.774;2022-07-29T08:24:41;8.70;;;3.88;;
41043;SDS011;51680;49.806;18.774;2022-07-29T08:27:52;6.50;;;3.67;;
41043;SDS011;51680;49.806;18.774;2022-07-29T08:30:54;7.65;;;4.47;;
41043;SDS011;51680;49.806;18.774;2022-07-29T08:33:56;9.55;;;4.03;;
41043;SDS011;51680;49.806;18.774;2022-07-29T08:37:01;8.85;;;4.50;;
41043;SDS011;51680;49.806;18.774;2022-07-29T08:40:03;7.75;;;3.72;;
41043;SDS011;51680;49.806;18.774;2022-07-29T08:43:06;11.70;;;4.40;;
41043;SDS011;51680;49.806;18.774;2022-07-29T08:46:09;8.38;;;4.63;;
41043;SDS011;51680;49.806;18.774;2022-07-29T08:49:11;10.48;;;4.20;;
41043;SDS011;51680;49.806;18.774;2022-07-29T08:52:15;7.88;;;4.05;;
41043;SDS011;51680;49.806;18.774;2022-07-29T08:55:17;10.77;;;3.97;;
41043;SDS011;51680;49.806;18.774;2022-07-29T08:58:19;9.73;;;4.38;;
41043;SDS011;51680;49.806;18.774;2022-07-29T09:01:23;11.15;;;3.97;;
41043;SDS011;51680;49.806;18.774;2022-07-29T09:04:26;9.93;;;3.92;;
41043;SDS011;51680;49.806;18.774;2022-07-29T09:07:32;7.38;;;4.00;;
41043;SDS011;51680;49.806;18.774;2022-07-29T09:10:35;7.72;;;4.00;;
41043;SDS011;51680;49.806;18.774;2022-07-29T09:13:37;9.07;;;4.10;;
41043;SDS011;51680;49.806;18.774;2022-07-29T09:16:46;8.20;;;4.00;;
41043;SDS011;51680;49.806;18.774;2022-07-29T09:23:10;7.10;;;3.85;;
41043;SDS011;51680;49.806;18.774;2022-07-29T09:26:12;12.50;;;4.20;;
41043;SDS011;51680;49.806;18.774;2022-07-29T09:29:14;9.20;;;4.30;;
41043;SDS011;51680;49.806;18.774;2022-07-29T09:32:18;10.50;;;4.40;;
41043;SDS011;51680;49.806;18.774;2022-07-29T09:35:20;6.35;;;3.80;;
41043;SDS011;51680;49.806;18.774;2022-07-29T09:38:24;7.00;;;4.07;;
41043;SDS011;51680;49.806;18.774;2022-07-29T09:41:26;8.10;;;3.80;;
41043;SDS011;51680;49.806;18.774;2022-07-29T09:44:40;6.00;;;3.83;;
41043;SDS011;51680;49.806;18.774;2022-07-29T09:47:44;6.82;;;3.70;;
41043;SDS011;51680;49.806;18.774;2022-07-29T09:50:49;8.52;;;3.75;;
41043;SDS011;51680;49.806;18.774;2022-07-29T09:53:53;7.63;;;4.28;;
41043;SDS011;51680;49.806;18.774;2022-07-29T09:56:55;11.10;;;4.85;;
41043;SDS011;51680;49.806;18.774;2022-07-29T09:59:58;5.32;;;3.75;;
41043;SDS011;51680;49.806;18.774;2022-07-29T10:03:01;16.23;;;4.43;;
41043;SDS011;51680;49.806;18.774;2022-07-29T10:06:06;18.83;;;4.20;;
41043;SDS011;51680;49.806;18.774;2022-07-29T10:09:11;11.02;;;4.30;;
41043;SDS011;51680;49.806;18.774;2022-07-29T10:12:32;10.10;;;3.83;;
41043;SDS011;51680;49.806;18.774;2022-07-29T10:15:34;8.85;;;3.60;;
41043;SDS011;51680;49.806;18.774;2022-07-29T10:18:41;8.63;;;3.97;;
41043;SDS011;51680;49.806;18.774;2022-07-29T10:21:43;8.93;;;4.10;;
41043;SDS011;51680;49.806;18.774;2022-07-29T10:24:46;6.88;;;4.28;;
41043;SDS011;51680;49.806;18.774;2022-07-29T10:27:49;8.70;;;3.67;;
41043;SDS011;51680;49.806;18.774;2022-07-29T10:30:52;7.40;;;3.75;;
41043;SDS011;51680;49.806;18.774;2022-07-29T10:34:03;5.80;;;3.47;;
41043;SDS011;51680;49.806;18.774;2022-07-29T10:37:15;10.80;;;3.90;;
41043;SDS011;51680;49.806;18.774;2022-07-29T10:40:28;9.25;;;3.95;;
41043;SDS011;51680;49.806;18.774;2022-07-29T10:43:57;7.60;;;3.45;;
41043;SDS011;51680;49.806;18.774;2022-07-29T10:47:01;9.70;;;3.38;;
41043;SDS011;51680;49.806;18.774;2022-07-29T10:50:04;6.03;;;3.42;;
41043;SDS011;51680;49.806;18.774;2022-07-29T10:53:08;7.43;;;3.10;;
41043;SDS011;51680;49.806;18.774;2022-07-29T10:56:20;5.93;;;3.10;;
41043;SDS011;51680;49.806;18.774;2022-07-29T10:59:26;13.38;;;3.50;;
41043;SDS011;51680;49.806;18.774;2022-07-29T11:02:40;5.72;;;3.15;;
41043;SDS011;51680;49.806;18.774;2022-07-29T11:05:53;8.67;;;3.37;;
41043;SDS011;51680;49.806;18.774;2022-07-29T11:09:15;7.18;;;3.20;;
41043;SDS011;51680;49.806;18.774;2022-07-29T11:15:52;8.63;;;3.53;;
41043;SDS011;51680;49.806;18.774;2022-07-29T11:22:31;7.93;;;3.25;;
41043;SDS011;51680;49.806;18.774;2022-07-29T11:25:34;7.72;;;3.08;;
41043;SDS011;51680;49.806;18.774;2022-07-29T11:28:39;10.70;;;3.20;;
41043;SDS011;51680;49.806;18.774;2022-07-29T11:31:51;6.93;;;3.40;;
41043;SDS011;51680;49.806;18.774;2022-07-29T11:35:12;6.80;;;3.03;;
41043;SDS011;51680;49.806;18.774;2022-07-29T11:38:25;6.43;;;3.70;;
41043;SDS011;51680;49.806;18.774;2022-07-29T11:41:28;9.27;;;3.30;;
41043;SDS011;51680;49.806;18.774;2022-07-29T11:47:58;9.73;;;3.45;;
41043;SDS011;51680;49.806;18.774;2022-07-29T11:51:00;6.40;;;2.92;;
41043;SDS011;51680;49.806;18.774;2022-07-29T11:54:11;7.43;;;3.47;;
41043;SDS011;51680;49.806;18.774;2022-07-29T11:57:17;13.65;;;3.67;;
41043;SDS011;51680;49.806;18.774;2022-07-29T12:00:22;6.93;;;3.45;;
41043;SDS011;51680;49.806;18.774;2022-07-29T12:03:26;6.70;;;3.00;;
41043;SDS011;51680;49.806;18.774;2022-07-29T12:06:29;7.65;;;3.58;;
41043;SDS011;51680;49.806;18.774;2022-07-29T12:09:31;8.68;;;3.05;;
41043;SDS011;51680;49.806;18.774;2022-07-29T12:12:33;4.95;;;3.20;;
41043;SDS011;51680;49.806;18.774;2022-07-29T12:15:36;7.97;;;3.50;;
41043;SDS011;51680;49.806;18.774;2022-07-29T12:18:38;7.97;;;3.17;;
41043;SDS011;51680;49.806;18.774;2022-07-29T12:21:43;9.52;;;3.30;;
41043;SDS011;51680;49.806;18.774;2022-07-29T12:24:46;8.98;;;3.30;;
41043;SDS011;51680;49.806;18.774;2022-07-29T12:27:49;8.20;;;3.22;;
41043;SDS011;51680;49.806;18.774;2022-07-29T12:31:00;6.22;;;3.10;;
41043;SDS011;51680;49.806;18.774;2022-07-29T12:34:02;8.73;;;3.25;;
41043;SDS011;51680;49.806;18.774;2022-07-29T12:37:04;8.30;;;3.17;;
41043;SDS011;51680;49.806;18.774;2022-07-29T12:40:10;9.50;;;3.47;;
41043;SDS011;51680;49.806;18.774;2022-07-29T12:43:14;5.43;;;3.30;;
41043;SDS011;51680;49.806;18.774;2022-07-29T12:49:20;11.98;;;3.58;;
41043;SDS011;51680;49.806;18.774;2022-07-29T12:52:23;7.55;;;3.50;;
41043;SDS011;51680;49.806;18.774;2022-07-29T12:55:37;8.37;;;3.20;;
41043;SDS011;51680;49.806;18.774;2022-07-29T13:01:44;8.10;;;3.30;;
41043;SDS011;51680;49.806;18.774;2022-07-29T13:04:54;11.50;;;3.60;;
41043;SDS011;51680;49.806;18.774;2022-07-29T13:08:01;5.35;;;2.83;;
41043;SDS011;51680;49.806;18.774;2022-07-29T13:11:26;8.75;;;3.63;;
41043;SDS011;51680;49.806;18.774;2022-07-29T13:14:30;5.60;;;3.10;;
41043;SDS011;51680;49.806;18.774;2022-07-29T13:20:40;8.85;;;3.25;;
41043;SDS011;51680;49.806;18.774;2022-07-29T13:23:42;6.88;;;2.90;;
41043;SDS011;51680;49.806;18.774;2022-07-29T13:26:44;5.68;;;3.40;;
41043;SDS011;51680;49.806;18.774;2022-07-29T13:29:46;6.95;;;3.25;;
41043;SDS011;51680;49.806;18.774;2022-07-29T13:32:50;9.63;;;3.00;;
41043;SDS011;51680;49.806;18.774;2022-07-29T13:35:53;6.78;;;3.25;;
41043;SDS011;51680;49.806;18.774;2022-07-29T13:38:55;6.20;;;2.95;;
41043;SDS011;51680;49.806;18.774;2022-07-29T13:41:57;8.55;;;3.30;;
41043;SDS011;51680;49.806;18.774;2022-07-29T13:44:59;8.45;;;3.92;;
41043;SDS011;51680;49.806;18.774;2022-07-29T13:48:02;8.68;;;3.03;;
41043;SDS011;51680;49.806;18.774;2022-07-29T13:51:05;6.55;;;3.20;;
41043;SDS011;51680;49.806;18.774;2022-07-29T13:54:06;6.70;;;3.20;;
41043;SDS011;51680;49.806;18.774;2022-07-29T13:57:08;7.50;;;2.88;;
41043;SDS011;51680;49.806;18.774;2022-07-29T14:00:12;7.50;;;3.15;;
41043;SDS011;51680;49.806;18.774;2022-07-29T14:03:16;5.97;;;3.10;;
41043;SDS011;51680;49.806;18.774;2022-07-29T14:06:18;6.75;;;2.80;;
41043;SDS011;51680;49.806;18.774;2022-07-29T14:09:20;13.30;;;3.33;;
41043;SDS011;51680;49.806;18.774;2022-07-29T14:12:22;6.03;;;2.72;;
41043;SDS011;51680;49.806;18.774;2022-07-29T14:15:23;5.82;;;3.05;;
41043;SDS011;51680;49.806;18.774;2022-07-29T14:18:27;9.35;;;2.92;;
41043;SDS011;51680;49.806;18.774;2022-07-29T14:21:28;5.95;;;2.80;;
41043;SDS011;51680;49.806;18.774;2022-07-29T14:24:31;6.82;;;2.78;;
41043;SDS011;51680;49.806;18.774;2022-07-29T14:27:32;7.40;;;4.03;;
41043;SDS011;51680;49.806;18.774;2022-07-29T14:30:34;9.15;;;4.15;;
41043;SDS011;51680;49.806;18.774;2022-07-29T14:33:56;12.75;;;4.55;;
41043;SDS011;51680;49.806;18.774;2022-07-29T14:36:57;7.63;;;3.10;;
41043;SDS011;51680;49.806;18.774;2022-07-29T14:39:59;5.57;;;2.70;;
41043;SDS011;51680;49.806;18.774;2022-07-29T14:43:03;7.95;;;2.60;;
41043;SDS011;51680;49.806;18.774;2022-07-29T14:46:05;5.40;;;2.78;;
41043;SDS011;51680;49.806;18.774;2022-07-29T14:49:09;7.18;;;2.75;;
41043;SDS011;51680;49.806;18.774;2022-07-29T14:52:11;9.18;;;2.95;;
41043;SDS011;51680;49.806;18.774;2022-07-29T14:55:13;8.40;;;3.33;;
41043;SDS011;51680;49.806;18.774;2022-07-29T14:58:15;6.60;;;2.75;;
41043;SDS011;51680;49.806;18.774;2022-07-29T15:01:17;7.35;;;2.80;;
41043;SDS011;51680;49.806;18.774;2022-07-29T15:04:20;5.88;;;2.85;;
41043;SDS011;51680;49.806;18.774;2022-07-29T15:07:22;4.68;;;2.55;;
41043;SDS011;51680;49.806;18.774;2022-07-29T15:10:23;6.85;;;2.70;;
41043;SDS011;51680;49.806;18.774;2022-07-29T15:13:26;11.52;;;3.03;;
41043;SDS011;51680;49.806;18.774;2022-07-29T15:16:28;7.95;;;3.00;;
41043;SDS011;51680;49.806;18.774;2022-07-29T15:19:31;2.55;;;1.42;;
41043;SDS011;51680;49.806;18.774;2022-07-29T15:22:33;1.75;;;0.98;;
41043;SDS011;51680;49.806;18.774;2022-07-29T15:25:35;1.33;;;0.65;;
41043;SDS011;51680;49.806;18.774;2022-07-29T15:28:37;5.25;;;1.30;;
41043;SDS011;51680;49.806;18.774;2022-07-29T15:31:39;1.60;;;0.93;;
41043;SDS011;51680;49.806;18.774;2022-07-29T15:34:42;3.70;;;1.00;;
41043;SDS011;51680;49.806;18.774;2022-07-29T15:37:43;2.78;;;1.42;;
41043;SDS011;51680;49.806;18.774;2022-07-29T15:40:45;3.97;;;1.23;;
41043;SDS011;51680;49.806;18.774;2022-07-29T15:43:47;3.38;;;1.98;;
41043;SDS011;51680;49.806;18.774;2022-07-29T15:46:50;4.43;;;2.13;;
41043;SDS011;51680;49.806;18.774;2022-07-29T15:50:07;3.00;;;1.63;;
41043;SDS011;51680;49.806;18.774;2022-07-29T15:53:14;3.47;;;1.92;;
41043;SDS011;51680;49.806;18.774;2022-07-29T15:56:16;6.78;;;1.95;;
41043;SDS011;51680;49.806;18.774;2022-07-29T15:59:18;1.92;;;1.35;;
41043;SDS011;51680;49.806;18.774;2022-07-29T16:02:20;5.40;;;2.13;;
41043;SDS011;51680;49.806;18.774;2022-07-29T16:05:23;4.38;;;1.60;;
41043;SDS011;51680;49.806;18.774;2022-07-29T16:08:25;5.93;;;2.42;;
41043;SDS011;51680;49.806;18.774;2022-07-29T16:11:27;8.13;;;3.33;;
41043;SDS011;51680;49.806;18.774;2022-07-29T16:14:29;6.43;;;3.45;;
41043;SDS011;51680;49.806;18.774;2022-07-29T16:17:30;5.22;;;3.05;;
41043;SDS011;51680;49.806;18.774;2022-07-29T16:20:34;4.85;;;2.70;;
41043;SDS011;51680;49.806;18.774;2022-07-29T16:26:38;4.47;;;2.80;;
41043;SDS011;51680;49.806;18.774;2022-07-29T16:29:40;5.68;;;3.38;;
41043;SDS011;51680;49.806;18.774;2022-07-29T16:32:41;7.03;;;2.78;;
41043;SDS011;51680;49.806;18.774;2022-07-29T16:35:45;5.75;;;3.05;;
41043;SDS011;51680;49.806;18.774;2022-07-29T16:38:47;7.97;;;3.63;;
41043;SDS011;51680;49.806;18.774;2022-07-29T16:41:49;6.85;;;3.53;;
41043;SDS011;51680;49.806;18.774;2022-07-29T16:44:51;5.40;;;3.50;;
41043;SDS011;51680;49.806;18.774;2022-07-29T16:47:52;6.18;;;3.33;;
41043;SDS011;51680;49.806;18.774;2022-07-29T16:50:56;8.05;;;3.30;;
41043;SDS011;51680;49.806;18.774;2022-07-29T16:53:58;5.60;;;3.33;;
41043;SDS011;51680;49.806;18.774;2022-07-29T16:56:59;11.50;;;3.55;;
41043;SDS011;51680;49.806;18.774;2022-07-29T17:00:02;8.40;;;3.63;;
41043;SDS011;51680;49.806;18.774;2022-07-29T17:03:05;5.18;;;3.50;;
41043;SDS011;51680;49.806;18.774;2022-07-29T17:06:08;6.40;;;3.53;;
41043;SDS011;51680;49.806;18.774;2022-07-29T17:09:10;6.28;;;3.70;;
41043;SDS011;51680;49.806;18.774;2022-07-29T17:12:15;6.25;;;3.35;;
41043;SDS011;51680;49.806;18.774;2022-07-29T17:15:16;6.78;;;3.28;;
41043;SDS011;51680;49.806;18.774;2022-07-29T17:18:18;5.65;;;3.17;;
41043;SDS011;51680;49.806;18.774;2022-07-29T17:21:22;5.28;;;3.25;;
41043;SDS011;51680;49.806;18.774;2022-07-29T17:27:25;8.68;;;3.83;;
41043;SDS011;51680;49.806;18.774;2022-07-29T17:30:27;11.45;;;4.18;;
41043;SDS011;51680;49.806;18.774;2022-07-29T17:33:29;6.15;;;3.25;;
41043;SDS011;51680;49.806;18.774;2022-07-29T17:36:32;7.65;;;3.30;;
41043;SDS011;51680;49.806;18.774;2022-07-29T17:39:34;5.97;;;3.10;;
41043;SDS011;51680;49.806;18.774;2022-07-29T17:42:36;5.15;;;3.17;;
41043;SDS011;51680;49.806;18.774;2022-07-29T17:45:38;5.97;;;3.13;;
41043;SDS011;51680;49.806;18.774;2022-07-29T17:48:40;6.07;;;3.38;;
41043;SDS011;51680;49.806;18.774;2022-07-29T17:51:43;4.63;;;2.80;;
41043;SDS011;51680;49.806;18.774;2022-07-29T17:54:45;4.57;;;3.20;;
41043;SDS011;51680;49.806;18.774;2022-07-29T17:57:48;6.10;;;3.47;;
41043;SDS011;51680;49.806;18.774;2022-07-29T18:00:50;5.40;;;3.10;;
41043;SDS011;51680;49.806;18.774;2022-07-29T18:03:52;4.07;;;2.60;;
41043;SDS011;51680;49.806;18.774;2022-07-29T18:06:55;4.40;;;2.88;;
41043;SDS011;51680;49.806;18.774;2022-07-29T18:09:56;4.57;;;2.70;;
41043;SDS011;51680;49.806;18.774;2022-07-29T18:12:58;4.60;;;3.00;;
41043;SDS011;51680;49.806;18.774;2022-07-29T18:16:00;5.88;;;3.28;;
41043;SDS011;51680;49.806;18.774;2022-07-29T18:19:02;4.43;;;2.95;;
41043;SDS011;51680;49.806;18.774;2022-07-29T18:22:05;4.90;;;3.20;;
41043;SDS011;51680;49.806;18.774;2022-07-29T18:25:12;5.57;;;3.30;;
41043;SDS011;51680;49.806;18.774;2022-07-29T18:28:14;7.47;;;3.50;;
41043;SDS011;51680;49.806;18.774;2022-07-29T18:31:15;4.80;;;3.47;;
41043;SDS011;51680;49.806;18.774;2022-07-29T18:34:17;7.20;;;3.95;;
41043;SDS011;51680;49.806;18.774;2022-07-29T18:37:20;6.47;;;3.15;;
41043;SDS011;51680;49.806;18.774;2022-07-29T18:40:22;5.83;;;3.47;;
41043;SDS011;51680;49.806;18.774;2022-07-29T18:43:24;8.15;;;3.15;;
41043;SDS011;51680;49.806;18.774;2022-07-29T18:46:26;6.18;;;3.13;;